sensor_id;sensor_type;location;lat;lon;timestamp;temperature;humidity
40253;DHT22;25972;51.854;4.534;2023-07-31T00:01:39;17.10;99.90
40253;DHT22;25972;51.854;4.534;2023-07-31T00:04:07;17.10;99.90
40253;DHT22;25972;51.854;4.534;2023-07-31T00:06:33;17.10;99.90
40253;DHT22;25972;51.854;4.534;2023-07-31T00:09:00;17.10;99.90
40253;DHT22;25972;51.854;4.534;2023-07-31T00:11:26;17.20;99.90
40253;DHT22;25972;51.854;4.534;2023-07-31T00:13:53;17.10;99.90
40253;DHT22;25972;51.854;4.534;2023-07-31T00:16:21;17.10;99.90
40253;DHT22;25972;51.854;4.534;2023-07-31T00:18:47;17.20;99.90
40253;DHT22;25972;51.854;4.534;2023-07-31T00:21:14;17.10;99.90
40253;DHT22;25972;51.854;4.534;2023-07-31T00:23:41;17.10;99.90
40253;DHT22;25972;51.854;4.534;2023-07-31T00:26:07;17.10;99.90
40253;DHT22;25972;51.854;4.534;2023-07-31T00:28:33;17.10;99.90
40253;DHT22;25972;51.854;4.534;2023-07-31T00:31:00;17.10;99.90
40253;DHT22;25972;51.854;4.534;2023-07-31T00:33:26;17.20;99.90
40253;DHT22;25972;51.854;4.534;2023-07-31T00:35:52;17.10;99.90
40253;DHT22;25972;51.854;4.534;2023-07-31T00:38:20;17.20;99.90
40253;DHT22;25972;51.854;4.534;2023-07-31T00:40:46;17.10;99.90
40253;DHT22;25972;51.854;4.534;2023-07-31T00:43:12;17.10;99.90
40253;DHT22;25972;51.854;4.534;2023-07-31T00:45:38;17.20;99.90
40253;DHT22;25972;51.854;4.534;2023-07-31T00:48:04;17.20;99.90
40253;DHT22;25972;51.854;4.534;2023-07-31T00:50:35;17.10;99.90
40253;DHT22;25972;51.854;4.534;2023-07-31T00:53:04;17.20;99.90
40253;DHT22;25972;51.854;4.534;2023-07-31T00:55:33;17.10;99.90
40253;DHT22;25972;51.854;4.534;2023-07-31T00:57:59;17.10;99.90
40253;DHT22;25972;51.854;4.534;2023-07-31T01:00:26;17.10;99.90
40253;DHT22;25972;51.854;4.534;2023-07-31T01:02:52;17.00;99.90
40253;DHT22;25972;51.854;4.534;2023-07-31T01:05:25;17.10;99.90
40253;DHT22;25972;51.854;4.534;2023-07-31T01:07:59;17.10;99.90
40253;DHT22;25972;51.854;4.534;2023-07-31T01:10:33;16.90;99.90
40253;DHT22;25972;51.854;4.534;2023-07-31T01:13:02;17.00;99.90
40253;DHT22;25972;51.854;4.534;2023-07-31T01:15:29;17.10;99.90
40253;DHT22;25972;51.854;4.534;2023-07-31T01:17:55;17.00;99.90
40253;DHT22;25972;51.854;4.534;2023-07-31T01:20:22;16.90;99.90
40253;DHT22;25972;51.854;4.534;2023-07-31T01:23:01;17.00;99.90
40253;DHT22;25972;51.854;4.534;2023-07-31T01:25:50;17.10;99.90
40253;DHT22;25972;51.854;4.534;2023-07-31T01:28:25;17.00;99.90
40253;DHT22;25972;51.854;4.534;2023-07-31T01:30:55;17.00;99.90
40253;DHT22;25972;51.854;4.534;2023-07-31T01:33:25;17.00;99.90
40253;DHT22;25972;51.854;4.534;2023-07-31T01:35:51;17.00;99.90
40253;DHT22;25972;51.854;4.534;2023-07-31T01:38:20;16.90;99.90
40253;DHT22;25972;51.854;4.534;2023-07-31T01:40:51;17.10;99.90
40253;DHT22;25972;51.854;4.534;2023-07-31T01:43:21;17.00;99.90
40253;DHT22;25972;51.854;4.534;2023-07-31T01:45:47;17.00;99.90
40253;DHT22;25972;51.854;4.534;2023-07-31T01:48:17;16.90;99.90
40253;DHT22;25972;51.854;4.534;2023-07-31T01:50:43;16.90;99.90
40253;DHT22;25972;51.854;4.534;2023-07-31T01:53:12;16.90;99.90
40253;DHT22;25972;51.854;4.534;2023-07-31T01:55:39;17.00;99.90
40253;DHT22;25972;51.854;4.534;2023-07-31T01:58:07;16.90;99.90
40253;DHT22;25972;51.854;4.534;2023-07-31T02:00:33;17.00;99.90
40253;DHT22;25972;51.854;4.534;2023-07-31T02:02:59;16.90;99.90
40253;DHT22;25972;51.854;4.534;2023-07-31T02:05:25;16.90;99.90
40253;DHT22;25972;51.854;4.534;2023-07-31T02:07:52;16.80;99.90
40253;DHT22;25972;51.854;4.534;2023-07-31T02:10:20;16.80;99.90
40253;DHT22;25972;51.854;4.534;2023-07-31T02:12:46;16.80;99.90
40253;DHT22;25972;51.854;4.534;2023-07-31T02:15:13;16.80;99.90
40253;DHT22;25972;51.854;4.534;2023-07-31T02:17:40;16.80;99.90
40253;DHT22;25972;51.854;4.534;2023-07-31T02:20:07;16.70;99.90
40253;DHT22;25972;51.854;4.534;2023-07-31T02:22:33;16.80;99.90
40253;DHT22;25972;51.854;4.534;2023-07-31T02:25:00;16.80;99.90
40253;DHT22;25972;51.854;4.534;2023-07-31T02:27:26;16.80;99.90
40253;DHT22;25972;51.854;4.534;2023-07-31T02:29:53;16.80;99.90
40253;DHT22;25972;51.854;4.534;2023-07-31T02:32:22;16.70;99.90
40253;DHT22;25972;51.854;4.534;2023-07-31T02:34:48;16.70;99.90
40253;DHT22;25972;51.854;4.534;2023-07-31T02:37:17;16.70;99.90
40253;DHT22;25972;51.854;4.534;2023-07-31T02:39:43;16.70;99.90
40253;DHT22;25972;51.854;4.534;2023-07-31T02:42:09;16.60;99.90
40253;DHT22;25972;51.854;4.534;2023-07-31T02:44:36;16.70;99.90
40253;DHT22;25972;51.854;4.534;2023-07-31T02:47:03;16.60;99.90
40253;DHT22;25972;51.854;4.534;2023-07-31T02:49:30;16.70;99.90
40253;DHT22;25972;51.854;4.534;2023-07-31T02:51:56;16.70;99.90
40253;DHT22;25972;51.854;4.534;2023-07-31T02:54:22;16.70;99.90
40253;DHT22;25972;51.854;4.534;2023-07-31T02:56:51;16.70;99.90
40253;DHT22;25972;51.854;4.534;2023-07-31T02:59:18;16.80;99.90
40253;DHT22;25972;51.854;4.534;2023-07-31T03:01:45;16.80;99.90
40253;DHT22;25972;51.854;4.534;2023-07-31T03:04:12;16.80;99.90
40253;DHT22;25972;51.854;4.534;2023-07-31T03:06:39;16.70;99.90
40253;DHT22;25972;51.854;4.534;2023-07-31T03:09:08;16.70;99.90
40253;DHT22;25972;51.854;4.534;2023-07-31T03:11:34;16.70;99.90
40253;DHT22;25972;51.854;4.534;2023-07-31T03:14:03;16.70;99.90
40253;DHT22;25972;51.854;4.534;2023-07-31T03:16:29;16.60;99.90
40253;DHT22;25972;51.854;4.534;2023-07-31T03:18:55;16.60;99.90
40253;DHT22;25972;51.854;4.534;2023-07-31T03:21:22;16.70;99.90
40253;DHT22;25972;51.854;4.534;2023-07-31T03:23:49;16.70;99.90
40253;DHT22;25972;51.854;4.534;2023-07-31T03:26:15;16.70;99.90
40253;DHT22;25972;51.854;4.534;2023-07-31T03:28:41;16.70;99.90
40253;DHT22;25972;51.854;4.534;2023-07-31T03:31:09;16.50;99.90
40253;DHT22;25972;51.854;4.534;2023-07-31T03:33:37;16.50;99.90
40253;DHT22;25972;51.854;4.534;2023-07-31T03:36:03;16.60;99.90
40253;DHT22;25972;51.854;4.534;2023-07-31T03:38:30;16.50;99.90
40253;DHT22;25972;51.854;4.534;2023-07-31T03:40:57;16.50;99.90
40253;DHT22;25972;51.854;4.534;2023-07-31T03:43:24;16.30;99.90
40253;DHT22;25972;51.854;4.534;2023-07-31T03:45:52;16.40;99.90
40253;DHT22;25972;51.854;4.534;2023-07-31T03:48:18;16.40;99.90
40253;DHT22;25972;51.854;4.534;2023-07-31T03:50:47;16.40;99.90
40253;DHT22;25972;51.854;4.534;2023-07-31T03:53:14;16.30;99.90
40253;DHT22;25972;51.854;4.534;2023-07-31T03:55:40;16.20;99.90
40253;DHT22;25972;51.854;4.534;2023-07-31T03:58:07;16.30;99.90
40253;DHT22;25972;51.854;4.534;2023-07-31T04:00:34;16.30;99.90
40253;DHT22;25972;51.854;4.534;2023-07-31T04:03:00;16.20;99.90
40253;DHT22;25972;51.854;4.534;2023-07-31T04:05:26;16.40;99.90
40253;DHT22;25972;51.854;4.534;2023-07-31T04:07:52;16.40;99.90
40253;DHT22;25972;51.854;4.534;2023-07-31T04:10:18;16.20;99.90
40253;DHT22;25972;51.854;4.534;2023-07-31T04:12:45;16.20;99.90
40253;DHT22;25972;51.854;4.534;2023-07-31T04:15:12;16.20;99.90
40253;DHT22;25972;51.854;4.534;2023-07-31T04:17:38;16.10;99.90
40253;DHT22;25972;51.854;4.534;2023-07-31T04:20:05;16.10;99.90
40253;DHT22;25972;51.854;4.534;2023-07-31T04:22:32;16.20;99.90
40253;DHT22;25972;51.854;4.534;2023-07-31T04:24:58;16.20;99.90
40253;DHT22;25972;51.854;4.534;2023-07-31T04:27:25;16.10;99.90
40253;DHT22;25972;51.854;4.534;2023-07-31T04:29:51;16.10;99.90
40253;DHT22;25972;51.854;4.534;2023-07-31T04:32:19;16.10;99.90
40253;DHT22;25972;51.854;4.534;2023-07-31T04:34:48;16.10;99.90
40253;DHT22;25972;51.854;4.534;2023-07-31T04:37:14;16.20;99.90
40253;DHT22;25972;51.854;4.534;2023-07-31T04:39:40;16.10;99.90
40253;DHT22;25972;51.854;4.534;2023-07-31T04:42:06;16.20;99.90
40253;DHT22;25972;51.854;4.534;2023-07-31T04:44:33;16.10;99.90
40253;DHT22;25972;51.854;4.534;2023-07-31T04:46:59;16.10;99.90
40253;DHT22;25972;51.854;4.534;2023-07-31T04:49:26;16.10;99.90
40253;DHT22;25972;51.854;4.534;2023-07-31T04:51:52;16.10;99.90
40253;DHT22;25972;51.854;4.534;2023-07-31T04:54:20;16.30;99.90
40253;DHT22;25972;51.854;4.534;2023-07-31T04:56:46;16.10;99.90
40253;DHT22;25972;51.854;4.534;2023-07-31T04:59:13;16.30;99.90
40253;DHT22;25972;51.854;4.534;2023-07-31T05:01:39;16.20;99.90
40253;DHT22;25972;51.854;4.534;2023-07-31T05:04:05;16.30;99.90
40253;DHT22;25972;51.854;4.534;2023-07-31T05:06:33;16.20;99.90
40253;DHT22;25972;51.854;4.534;2023-07-31T05:08:59;16.30;99.90
40253;DHT22;25972;51.854;4.534;2023-07-31T05:11:26;16.20;99.90
40253;DHT22;25972;51.854;4.534;2023-07-31T05:13:52;16.30;99.90
40253;DHT22;25972;51.854;4.534;2023-07-31T05:16:19;16.30;99.90
40253;DHT22;25972;51.854;4.534;2023-07-31T05:18:45;16.30;99.90
40253;DHT22;25972;51.854;4.534;2023-07-31T05:21:11;16.30;99.90
40253;DHT22;25972;51.854;4.534;2023-07-31T05:23:39;16.20;99.90
40253;DHT22;25972;51.854;4.534;2023-07-31T05:26:05;16.40;99.90
40253;DHT22;25972;51.854;4.534;2023-07-31T05:28:34;16.20;99.90
40253;DHT22;25972;51.854;4.534;2023-07-31T05:31:00;16.30;99.90
40253;DHT22;25972;51.854;4.534;2023-07-31T05:33:29;16.40;99.90
40253;DHT22;25972;51.854;4.534;2023-07-31T05:35:56;16.30;99.90
40253;DHT22;25972;51.854;4.534;2023-07-31T05:38:23;16.40;99.90
40253;DHT22;25972;51.854;4.534;2023-07-31T05:40:50;16.40;99.90
40253;DHT22;25972;51.854;4.534;2023-07-31T05:43:16;16.30;99.90
40253;DHT22;25972;51.854;4.534;2023-07-31T05:45:43;16.30;99.90
40253;DHT22;25972;51.854;4.534;2023-07-31T05:48:09;16.40;99.90
40253;DHT22;25972;51.854;4.534;2023-07-31T05:50:35;16.30;99.90
40253;DHT22;25972;51.854;4.534;2023-07-31T05:53:06;16.40;99.90
40253;DHT22;25972;51.854;4.534;2023-07-31T05:55:33;16.40;99.90
40253;DHT22;25972;51.854;4.534;2023-07-31T05:58:01;16.40;99.90
40253;DHT22;25972;51.854;4.534;2023-07-31T06:00:27;16.60;99.90
40253;DHT22;25972;51.854;4.534;2023-07-31T06:02:56;16.50;99.90
40253;DHT22;25972;51.854;4.534;2023-07-31T06:05:22;16.50;99.90
40253;DHT22;25972;51.854;4.534;2023-07-31T06:07:49;16.50;99.90
40253;DHT22;25972;51.854;4.534;2023-07-31T06:10:15;16.60;99.90
40253;DHT22;25972;51.854;4.534;2023-07-31T06:12:41;16.60;99.90
40253;DHT22;25972;51.854;4.534;2023-07-31T06:15:09;16.60;99.90
40253;DHT22;25972;51.854;4.534;2023-07-31T06:17:35;16.50;99.90
40253;DHT22;25972;51.854;4.534;2023-07-31T06:20:01;16.60;99.90
40253;DHT22;25972;51.854;4.534;2023-07-31T06:22:31;16.60;99.90
40253;DHT22;25972;51.854;4.534;2023-07-31T06:24:57;16.70;99.90
40253;DHT22;25972;51.854;4.534;2023-07-31T06:27:23;16.60;99.90
40253;DHT22;25972;51.854;4.534;2023-07-31T06:29:49;16.70;99.90
40253;DHT22;25972;51.854;4.534;2023-07-31T06:32:17;16.70;99.90
40253;DHT22;25972;51.854;4.534;2023-07-31T06:34:43;16.60;99.90
40253;DHT22;25972;51.854;4.534;2023-07-31T06:37:09;16.70;99.90
40253;DHT22;25972;51.854;4.534;2023-07-31T06:39:35;16.70;99.90
40253;DHT22;25972;51.854;4.534;2023-07-31T06:42:04;16.60;99.90
40253;DHT22;25972;51.854;4.534;2023-07-31T06:44:30;16.70;99.90
40253;DHT22;25972;51.854;4.534;2023-07-31T06:46:56;16.70;99.90
40253;DHT22;25972;51.854;4.534;2023-07-31T06:49:24;16.80;99.90
40253;DHT22;25972;51.854;4.534;2023-07-31T06:51:50;16.80;99.90
40253;DHT22;25972;51.854;4.534;2023-07-31T06:54:16;16.70;99.90
40253;DHT22;25972;51.854;4.534;2023-07-31T06:56:42;16.80;99.90
40253;DHT22;25972;51.854;4.534;2023-07-31T06:59:08;16.70;99.90
40253;DHT22;25972;51.854;4.534;2023-07-31T07:01:34;16.70;99.90
40253;DHT22;25972;51.854;4.534;2023-07-31T07:04:00;16.70;99.90
40253;DHT22;25972;51.854;4.534;2023-07-31T07:06:28;16.70;99.90
40253;DHT22;25972;51.854;4.534;2023-07-31T07:08:54;16.80;99.90
40253;DHT22;25972;51.854;4.534;2023-07-31T07:11:21;16.80;99.90
40253;DHT22;25972;51.854;4.534;2023-07-31T07:14:12;16.80;99.90
40253;DHT22;25972;51.854;4.534;2023-07-31T07:16:38;17.00;99.90
40253;DHT22;25972;51.854;4.534;2023-07-31T07:19:06;16.90;99.90
40253;DHT22;25972;51.854;4.534;2023-07-31T07:21:34;17.10;99.90
40253;DHT22;25972;51.854;4.534;2023-07-31T07:24:00;17.10;99.90
40253;DHT22;25972;51.854;4.534;2023-07-31T07:26:26;17.10;99.90
40253;DHT22;25972;51.854;4.534;2023-07-31T07:28:52;17.10;99.90
40253;DHT22;25972;51.854;4.534;2023-07-31T07:31:19;17.00;99.90
40253;DHT22;25972;51.854;4.534;2023-07-31T07:33:45;17.10;99.90
40253;DHT22;25972;51.854;4.534;2023-07-31T07:36:11;17.00;99.90
40253;DHT22;25972;51.854;4.534;2023-07-31T07:38:39;17.00;99.90
40253;DHT22;25972;51.854;4.534;2023-07-31T07:41:06;17.00;99.90
40253;DHT22;25972;51.854;4.534;2023-07-31T07:43:32;17.00;99.90
40253;DHT22;25972;51.854;4.534;2023-07-31T07:45:58;17.10;99.90
40253;DHT22;25972;51.854;4.534;2023-07-31T07:48:25;17.00;99.90
40253;DHT22;25972;51.854;4.534;2023-07-31T07:50:51;17.20;99.90
40253;DHT22;25972;51.854;4.534;2023-07-31T07:53:17;17.20;99.90
40253;DHT22;25972;51.854;4.534;2023-07-31T07:55:45;17.10;99.90
40253;DHT22;25972;51.854;4.534;2023-07-31T07:58:11;17.30;99.90
40253;DHT22;25972;51.854;4.534;2023-07-31T08:00:37;17.20;99.90
40253;DHT22;25972;51.854;4.534;2023-07-31T08:03:03;17.20;99.90
40253;DHT22;25972;51.854;4.534;2023-07-31T08:05:30;17.40;99.90
40253;DHT22;25972;51.854;4.534;2023-07-31T08:07:59;17.20;99.90
40253;DHT22;25972;51.854;4.534;2023-07-31T08:10:27;17.40;99.90
40253;DHT22;25972;51.854;4.534;2023-07-31T08:12:54;17.40;99.90
40253;DHT22;25972;51.854;4.534;2023-07-31T08:15:20;17.30;99.90
40253;DHT22;25972;51.854;4.534;2023-07-31T08:17:46;17.30;99.90
40253;DHT22;25972;51.854;4.534;2023-07-31T08:20:13;17.40;99.90
40253;DHT22;25972;51.854;4.534;2023-07-31T08:22:40;17.40;99.90
40253;DHT22;25972;51.854;4.534;2023-07-31T08:25:09;17.30;99.90
40253;DHT22;25972;51.854;4.534;2023-07-31T08:27:38;17.30;99.90
40253;DHT22;25972;51.854;4.534;2023-07-31T08:30:07;17.50;99.90
40253;DHT22;25972;51.854;4.534;2023-07-31T08:32:33;17.60;99.90
40253;DHT22;25972;51.854;4.534;2023-07-31T08:34:59;17.70;99.90
40253;DHT22;25972;51.854;4.534;2023-07-31T08:37:25;17.70;99.90
40253;DHT22;25972;51.854;4.534;2023-07-31T08:39:51;17.80;99.90
40253;DHT22;25972;51.854;4.534;2023-07-31T08:42:17;17.80;99.90
40253;DHT22;25972;51.854;4.534;2023-07-31T08:44:44;17.70;99.90
40253;DHT22;25972;51.854;4.534;2023-07-31T08:47:12;17.70;99.90
40253;DHT22;25972;51.854;4.534;2023-07-31T08:49:39;17.70;99.90
40253;DHT22;25972;51.854;4.534;2023-07-31T08:52:07;17.70;99.90
40253;DHT22;25972;51.854;4.534;2023-07-31T08:54:33;17.70;99.90
40253;DHT22;25972;51.854;4.534;2023-07-31T08:57:00;17.70;99.90
40253;DHT22;25972;51.854;4.534;2023-07-31T08:59:29;17.70;99.90
40253;DHT22;25972;51.854;4.534;2023-07-31T09:01:55;17.80;99.90
40253;DHT22;25972;51.854;4.534;2023-07-31T09:04:25;17.90;99.90
40253;DHT22;25972;51.854;4.534;2023-07-31T09:06:56;17.80;99.90
40253;DHT22;25972;51.854;4.534;2023-07-31T09:09:23;18.00;99.90
40253;DHT22;25972;51.854;4.534;2023-07-31T09:11:52;18.10;99.90
40253;DHT22;25972;51.854;4.534;2023-07-31T09:14:21;18.10;99.90
40253;DHT22;25972;51.854;4.534;2023-07-31T09:16:55;18.10;99.90
40253;DHT22;25972;51.854;4.534;2023-07-31T09:19:33;18.40;99.90
40253;DHT22;25972;51.854;4.534;2023-07-31T09:22:00;18.30;99.90
40253;DHT22;25972;51.854;4.534;2023-07-31T09:24:27;18.40;99.90
40253;DHT22;25972;51.854;4.534;2023-07-31T09:26:54;18.50;99.90
40253;DHT22;25972;51.854;4.534;2023-07-31T09:29:25;18.50;99.90
40253;DHT22;25972;51.854;4.534;2023-07-31T09:31:52;18.30;99.90
40253;DHT22;25972;51.854;4.534;2023-07-31T09:34:19;18.30;99.90
40253;DHT22;25972;51.854;4.534;2023-07-31T09:36:48;18.30;99.90
40253;DHT22;25972;51.854;4.534;2023-07-31T09:39:16;18.40;99.90
40253;DHT22;25972;51.854;4.534;2023-07-31T09:41:44;18.50;99.90
40253;DHT22;25972;51.854;4.534;2023-07-31T09:44:11;18.30;99.90
40253;DHT22;25972;51.854;4.534;2023-07-31T09:46:37;18.50;99.90
40253;DHT22;25972;51.854;4.534;2023-07-31T09:49:05;18.40;99.90
40253;DHT22;25972;51.854;4.534;2023-07-31T09:51:32;18.40;99.90
40253;DHT22;25972;51.854;4.534;2023-07-31T09:54:09;18.40;99.90
40253;DHT22;25972;51.854;4.534;2023-07-31T09:56:42;18.30;99.90
40253;DHT22;25972;51.854;4.534;2023-07-31T09:59:11;18.40;99.90
40253;DHT22;25972;51.854;4.534;2023-07-31T10:01:38;18.30;99.90
40253;DHT22;25972;51.854;4.534;2023-07-31T10:04:05;18.40;99.90
40253;DHT22;25972;51.854;4.534;2023-07-31T10:06:34;18.40;99.90
40253;DHT22;25972;51.854;4.534;2023-07-31T10:09:01;18.20;99.90
40253;DHT22;25972;51.854;4.534;2023-07-31T10:11:30;18.20;99.90
40253;DHT22;25972;51.854;4.534;2023-07-31T10:13:59;18.30;99.90
40253;DHT22;25972;51.854;4.534;2023-07-31T10:16:26;18.20;99.90
40253;DHT22;25972;51.854;4.534;2023-07-31T10:18:53;18.20;99.90
40253;DHT22;25972;51.854;4.534;2023-07-31T10:21:20;18.30;99.90
40253;DHT22;25972;51.854;4.534;2023-07-31T10:23:46;18.20;99.90
40253;DHT22;25972;51.854;4.534;2023-07-31T10:26:13;18.20;99.90
40253;DHT22;25972;51.854;4.534;2023-07-31T10:28:42;18.20;99.90
40253;DHT22;25972;51.854;4.534;2023-07-31T10:31:09;18.30;99.90
40253;DHT22;25972;51.854;4.534;2023-07-31T10:33:36;18.30;99.90
40253;DHT22;25972;51.854;4.534;2023-07-31T10:36:16;18.20;99.90
40253;DHT22;25972;51.854;4.534;2023-07-31T10:38:43;18.20;99.90
40253;DHT22;25972;51.854;4.534;2023-07-31T10:41:09;18.20;99.90
40253;DHT22;25972;51.854;4.534;2023-07-31T10:43:36;18.20;99.90
40253;DHT22;25972;51.854;4.534;2023-07-31T10:46:08;18.30;99.90
40253;DHT22;25972;51.854;4.534;2023-07-31T10:48:35;18.40;99.90
40253;DHT22;25972;51.854;4.534;2023-07-31T10:51:07;18.30;99.90
40253;DHT22;25972;51.854;4.534;2023-07-31T10:53:34;18.30;99.90
40253;DHT22;25972;51.854;4.534;2023-07-31T10:56:01;18.40;99.90
40253;DHT22;25972;51.854;4.534;2023-07-31T10:58:29;18.50;99.90
40253;DHT22;25972;51.854;4.534;2023-07-31T11:00:59;18.40;99.90
40253;DHT22;25972;51.854;4.534;2023-07-31T11:03:29;18.50;99.90
40253;DHT22;25972;51.854;4.534;2023-07-31T11:06:06;18.60;99.90
40253;DHT22;25972;51.854;4.534;2023-07-31T11:08:41;18.60;99.90
40253;DHT22;25972;51.854;4.534;2023-07-31T11:11:10;18.60;99.90
40253;DHT22;25972;51.854;4.534;2023-07-31T11:13:41;18.60;99.90
40253;DHT22;25972;51.854;4.534;2023-07-31T11:16:08;18.60;99.90
40253;DHT22;25972;51.854;4.534;2023-07-31T11:18:38;18.40;99.90
40253;DHT22;25972;51.854;4.534;2023-07-31T11:21:07;18.50;99.90
40253;DHT22;25972;51.854;4.534;2023-07-31T11:23:37;18.50;99.90
40253;DHT22;25972;51.854;4.534;2023-07-31T11:26:05;18.40;99.90
40253;DHT22;25972;51.854;4.534;2023-07-31T11:28:33;18.50;99.90
40253;DHT22;25972;51.854;4.534;2023-07-31T11:31:00;18.50;99.90
40253;DHT22;25972;51.854;4.534;2023-07-31T11:33:26;18.50;99.90
40253;DHT22;25972;51.854;4.534;2023-07-31T11:35:54;18.50;99.90
40253;DHT22;25972;51.854;4.534;2023-07-31T11:38:24;18.50;99.90
40253;DHT22;25972;51.854;4.534;2023-07-31T11:40:51;18.50;99.90
40253;DHT22;25972;51.854;4.534;2023-07-31T11:43:21;18.60;99.90
40253;DHT22;25972;51.854;4.534;2023-07-31T11:45:49;18.50;99.90
40253;DHT22;25972;51.854;4.534;2023-07-31T11:48:22;18.50;99.90
40253;DHT22;25972;51.854;4.534;2023-07-31T11:50:50;18.50;99.90
40253;DHT22;25972;51.854;4.534;2023-07-31T11:53:23;18.50;99.90
40253;DHT22;25972;51.854;4.534;2023-07-31T11:55:51;18.70;99.90
40253;DHT22;25972;51.854;4.534;2023-07-31T11:58:18;18.50;99.90
40253;DHT22;25972;51.854;4.534;2023-07-31T12:00:45;18.50;99.90
40253;DHT22;25972;51.854;4.534;2023-07-31T12:03:11;18.70;99.90
40253;DHT22;25972;51.854;4.534;2023-07-31T12:05:38;18.80;99.90
40253;DHT22;25972;51.854;4.534;2023-07-31T12:08:09;18.70;99.90
40253;DHT22;25972;51.854;4.534;2023-07-31T12:10:39;18.80;99.90
40253;DHT22;25972;51.854;4.534;2023-07-31T12:13:08;18.70;99.90
40253;DHT22;25972;51.854;4.534;2023-07-31T12:15:42;18.70;99.90
40253;DHT22;25972;51.854;4.534;2023-07-31T12:18:10;18.80;99.90
40253;DHT22;25972;51.854;4.534;2023-07-31T12:20:42;18.80;99.90
40253;DHT22;25972;51.854;4.534;2023-07-31T12:23:14;18.70;99.90
40253;DHT22;25972;51.854;4.534;2023-07-31T12:25:42;18.80;99.90
40253;DHT22;25972;51.854;4.534;2023-07-31T12:28:09;18.70;99.90
40253;DHT22;25972;51.854;4.534;2023-07-31T12:30:38;18.80;99.90
40253;DHT22;25972;51.854;4.534;2023-07-31T12:33:12;18.80;99.90
40253;DHT22;25972;51.854;4.534;2023-07-31T12:35:43;18.70;99.90
40253;DHT22;25972;51.854;4.534;2023-07-31T12:38:09;18.70;99.90
40253;DHT22;25972;51.854;4.534;2023-07-31T12:40:37;18.60;99.90
40253;DHT22;25972;51.854;4.534;2023-07-31T12:43:05;18.80;99.90
40253;DHT22;25972;51.854;4.534;2023-07-31T12:45:32;18.50;99.90
40253;DHT22;25972;51.854;4.534;2023-07-31T12:47:59;18.60;99.90
40253;DHT22;25972;51.854;4.534;2023-07-31T12:50:25;18.60;99.90
40253;DHT22;25972;51.854;4.534;2023-07-31T12:52:52;18.70;99.90
40253;DHT22;25972;51.854;4.534;2023-07-31T12:55:19;18.80;99.90
40253;DHT22;25972;51.854;4.534;2023-07-31T12:57:45;18.80;99.90
40253;DHT22;25972;51.854;4.534;2023-07-31T13:00:14;18.70;99.90
40253;DHT22;25972;51.854;4.534;2023-07-31T13:02:40;18.70;99.90
40253;DHT22;25972;51.854;4.534;2023-07-31T13:05:07;18.80;99.90
40253;DHT22;25972;51.854;4.534;2023-07-31T13:07:33;18.90;99.90
40253;DHT22;25972;51.854;4.534;2023-07-31T13:09:59;19.00;99.90
40253;DHT22;25972;51.854;4.534;2023-07-31T13:12:25;19.00;99.90
40253;DHT22;25972;51.854;4.534;2023-07-31T13:14:51;19.00;99.90
40253;DHT22;25972;51.854;4.534;2023-07-31T13:17:19;19.00;99.90
40253;DHT22;25972;51.854;4.534;2023-07-31T13:19:45;19.00;99.90
40253;DHT22;25972;51.854;4.534;2023-07-31T13:22:11;19.10;99.90
40253;DHT22;25972;51.854;4.534;2023-07-31T13:24:38;18.90;99.90
40253;DHT22;25972;51.854;4.534;2023-07-31T13:27:04;18.90;99.90
40253;DHT22;25972;51.854;4.534;2023-07-31T13:29:30;18.80;99.90
40253;DHT22;25972;51.854;4.534;2023-07-31T13:31:58;18.80;99.90
40253;DHT22;25972;51.854;4.534;2023-07-31T13:34:25;19.00;99.90
40253;DHT22;25972;51.854;4.534;2023-07-31T13:36:53;18.80;99.90
40253;DHT22;25972;51.854;4.534;2023-07-31T13:39:20;18.90;99.90
40253;DHT22;25972;51.854;4.534;2023-07-31T13:41:46;18.80;99.90
40253;DHT22;25972;51.854;4.534;2023-07-31T13:44:13;18.90;99.90
40253;DHT22;25972;51.854;4.534;2023-07-31T13:46:40;19.00;99.90
40253;DHT22;25972;51.854;4.534;2023-07-31T13:49:06;19.00;99.90
40253;DHT22;25972;51.854;4.534;2023-07-31T13:51:33;18.90;99.90
40253;DHT22;25972;51.854;4.534;2023-07-31T13:54:00;18.90;99.90
40253;DHT22;25972;51.854;4.534;2023-07-31T13:56:27;18.80;99.90
40253;DHT22;25972;51.854;4.534;2023-07-31T13:58:53;18.90;99.90
40253;DHT22;25972;51.854;4.534;2023-07-31T14:01:22;18.80;99.90
40253;DHT22;25972;51.854;4.534;2023-07-31T14:03:50;18.90;99.90
40253;DHT22;25972;51.854;4.534;2023-07-31T14:06:16;18.80;99.90
40253;DHT22;25972;51.854;4.534;2023-07-31T14:08:44;18.70;99.90
40253;DHT22;25972;51.854;4.534;2023-07-31T14:11:10;18.90;99.90
40253;DHT22;25972;51.854;4.534;2023-07-31T14:13:36;18.80;99.90
40253;DHT22;25972;51.854;4.534;2023-07-31T14:16:03;18.70;99.90
40253;DHT22;25972;51.854;4.534;2023-07-31T14:18:29;18.80;99.90
40253;DHT22;25972;51.854;4.534;2023-07-31T14:21:03;18.80;99.90
40253;DHT22;25972;51.854;4.534;2023-07-31T14:23:30;18.80;99.90
40253;DHT22;25972;51.854;4.534;2023-07-31T14:25:57;18.60;99.90
40253;DHT22;25972;51.854;4.534;2023-07-31T14:28:24;18.60;99.90
40253;DHT22;25972;51.854;4.534;2023-07-31T14:30:50;18.60;99.90
40253;DHT22;25972;51.854;4.534;2023-07-31T14:33:16;18.70;99.90
40253;DHT22;25972;51.854;4.534;2023-07-31T14:35:42;18.50;99.90
40253;DHT22;25972;51.854;4.534;2023-07-31T14:38:08;18.60;99.90
40253;DHT22;25972;51.854;4.534;2023-07-31T14:40:34;18.50;99.90
40253;DHT22;25972;51.854;4.534;2023-07-31T14:43:05;18.50;99.90
40253;DHT22;25972;51.854;4.534;2023-07-31T14:45:32;18.50;99.90
40253;DHT22;25972;51.854;4.534;2023-07-31T14:47:58;18.40;99.90
40253;DHT22;25972;51.854;4.534;2023-07-31T14:50:25;18.40;99.90
40253;DHT22;25972;51.854;4.534;2023-07-31T14:52:51;18.60;99.90
40253;DHT22;25972;51.854;4.534;2023-07-31T14:55:21;18.50;99.90
40253;DHT22;25972;51.854;4.534;2023-07-31T14:57:48;18.40;99.90
40253;DHT22;25972;51.854;4.534;2023-07-31T15:00:18;18.20;99.90
40253;DHT22;25972;51.854;4.534;2023-07-31T15:02:45;18.30;99.90
40253;DHT22;25972;51.854;4.534;2023-07-31T15:05:11;18.30;99.90
40253;DHT22;25972;51.854;4.534;2023-07-31T15:07:38;18.30;99.90
40253;DHT22;25972;51.854;4.534;2023-07-31T15:10:05;18.40;99.90
40253;DHT22;25972;51.854;4.534;2023-07-31T15:12:31;18.20;99.90
40253;DHT22;25972;51.854;4.534;2023-07-31T15:14:58;18.40;99.90
40253;DHT22;25972;51.854;4.534;2023-07-31T15:17:27;18.30;99.90
40253;DHT22;25972;51.854;4.534;2023-07-31T15:19:56;18.20;99.90
40253;DHT22;25972;51.854;4.534;2023-07-31T15:22:23;18.40;99.90
40253;DHT22;25972;51.854;4.534;2023-07-31T15:24:49;18.30;99.90
40253;DHT22;25972;51.854;4.534;2023-07-31T15:27:15;18.40;99.90
40253;DHT22;25972;51.854;4.534;2023-07-31T15:29:41;18.30;99.90
40253;DHT22;25972;51.854;4.534;2023-07-31T15:32:08;18.20;99.90